Blackburn, MO (65321)

2:16 PM CST on January 31, 2015 (GMT -0600)
Dwight Dr and Cedar | Change Station
CLOSE
Current Station
Personal Weather Station
Location: Waverly, MO
Elevation: 810 ft
Nearby Weather Stations

Elev 810 ft 39.21 °N, 93.52 °W | Updated 19 seconds ago

Rain
Rain
38.1 °F
Feels Like 34 °F
N
6.0
Wind Variable Wind from ESE
Gusts 10.0 mph

Today
High -- | Low -- °F
--% Chance of Precip.
Yesterday
High -- | Low -- °F
Precip. -- in
7:21 AM 5:33 PM
Waxing Gibbous, 91% visible
Pressure 30.17 in
Visibility 10.0 miles
Clouds Clear
Windchill 34 °F
Dew Point 36 °F
Humidity 94%
Rainfall 0.49 in
Snow Depth Not available.
UV 3 out of 12
Pollen .10 out of 12
Air Quality Not available.
Flu Activity Not available.
METAR KSZL 311958Z AUTO 21004KT 10SM CLR 04/03 A3014 RMK AO2 RAE18DZB18E29 SLP216 P0002 T00390027 $

More Conditions Fewer Conditions

Pressure 30.17 in
Visibility 10.0 miles
Clouds Clear
Windchill 34 °F
Dew Point 36 °F
Humidity 94%
Rainfall 0.49 in
Snow Depth Not available.
UV 3 out of 12
Pollen .10 out of 12
Air Quality Not available.
Flu Activity Not available.
METAR KSZL 311958Z AUTO 21004KT 10SM CLR 04/03 A3014 RMK AO2 RAE18DZB18E29 SLP216 P0002 T00390027 $

More Conditions Fewer Conditions

10-Day Weather Forecast

Almanac

Astronomy

Jan. 31, 2015 Rise Set
Actual Time
Civil Twilight
Nautical Twilight
Astronomical Twilight
Moon
Length of Visible Light
Length of Day
Tomorrow will be .
, % of the Moon is Illuminated

Today's Extremes

State Highs State Lows

Community

WunderPhotos

Upload Photos

1,792,173 photos uploaded!

WunderBlogs® & News

Nearby

Air Quality

  Air Quality AQ Index Pollutant
Not available.

Snow Depth

Station Depth Elevation

Earthquake Activity

City Distance Mag. Time & Date
Minimum magnitude displayed is 2.5.

Coastal Water Temperatures

Place Temperature

Nearby Weather Stations